Aérodrome :
LOGIN :

S'inscrire | Disclaimer

   EN    FR    IT 

 










Légende :    VFR   VFR Marginal   IFR   IFR Intensif   IFR Très Intensif
Visi : 
Plafond : 
>= 8 km
>= 3000ft
5 à 8 km
1000 à 3000 ft
1500m à 5 km
500 à 1000 ft
800 à 1500m
200 à 500 ft
< 800m
< 200 ft
Symboles :   Orages  Brouillard  Fortes neiges  Fortes précipitations  Vent > 20 kt
SIGMETs :   Divers  Orages  Givrage  Turbulence  Onde Orograph.  Cendres Volcan.






- Altitude de l'aérodrome : 324 ft
- Code IATA : KVB


ESGR - Skovde

DERNIER METAR :
  • 201450Z AUTO 05004KT 9999 BKN015/// BKN200/// 05/05 Q1023

METARs EXPIRÉS :
  • 201420Z AUTO 08003KT 9999 BKN017/// 05/05 Q1023
  • 201350Z AUTO 08004KT 9999 SCT072/// 06/06 Q1023
  • 201320Z AUTO 08003KT 9999 SCT006/// BKN013/// OVC070/// 06/06 Q1023
  • 201250Z AUTO 08003KT 9999 OVC015/// 07/06 Q1023

TAF N/A



MET'MAP, la Météo Aéronautique d'un coup d'oeil ! - Copyright ORBIFLY Décembre 2007 - Disclaimer

ORBIFLY MET'MAP TEAM :

Programmation & Développement : Alexandra Zaïnal
Conception & Développement : Baudouin d'Aumeries
Co-Programmation & Développement : Marc-Olivier Méhu
Soutien technique & logistique : Manuel Goepfert

Contact : metmap@orbifly.com




SOURCES & CREDITS :

   NOAA